createdAt,value
2017-10-05T00:02:14.826Z,5.15
2017-10-05T00:05:24.993Z,6.20
2017-10-05T00:08:34.839Z,4.95
2017-10-05T00:11:44.792Z,4.55
2017-10-05T00:14:54.942Z,6.05
2017-10-05T00:18:04.774Z,4.57
2017-10-05T00:21:14.698Z,4.45
2017-10-05T00:24:24.717Z,4.40
2017-10-05T00:27:35.221Z,7.45
2017-10-05T00:30:45.424Z,5.22
2017-10-05T00:33:55.295Z,5.45
2017-10-05T00:37:05.046Z,5.82
2017-10-05T00:40:15.717Z,5.70
2017-10-05T00:43:26.496Z,5.22
2017-10-05T00:46:36.477Z,4.93
2017-10-05T00:49:45.981Z,6.18
2017-10-05T00:52:56.126Z,6.78
2017-10-05T00:56:06.839Z,5.85
2017-10-05T00:59:18.519Z,5.70
2017-10-05T01:02:29.031Z,5.85
2017-10-05T01:05:39.356Z,6.12
2017-10-05T01:08:49.290Z,5.00
2017-10-05T01:11:58.918Z,4.53
2017-10-05T01:15:08.706Z,5.32
2017-10-05T01:18:18.593Z,4.37
2017-10-05T01:21:28.230Z,5.12
2017-10-05T01:24:37.970Z,6.90
2017-10-05T01:27:47.516Z,5.53
2017-10-05T01:30:57.998Z,5.72
2017-10-05T01:34:08.214Z,6.18
2017-10-05T01:37:18.358Z,4.07
2017-10-05T01:40:28.188Z,5.28
2017-10-05T01:43:38.684Z,5.30
2017-10-05T01:46:48.967Z,5.55
2017-10-05T01:49:58.825Z,5.30
2017-10-05T01:53:09.225Z,6.60
2017-10-05T01:56:19.163Z,5.60
2017-10-05T01:59:29.479Z,5.57
2017-10-05T02:02:39.559Z,6.72
2017-10-05T02:05:49.999Z,6.55
2017-10-05T02:09:00.204Z,6.90
2017-10-05T02:12:10.406Z,7.20
2017-10-05T02:15:20.327Z,5.82
2017-10-05T02:18:30.214Z,6.45
2017-10-05T02:21:40.356Z,6.05
2017-10-05T02:24:50.260Z,5.90
2017-10-05T02:28:00.814Z,10.50
2017-10-05T02:31:11.039Z,6.55
2017-10-05T02:34:20.977Z,7.05
2017-10-05T02:37:32.246Z,6.97
2017-10-05T02:40:42.126Z,7.05
2017-10-05T02:43:53.021Z,6.28
2017-10-05T02:47:03.407Z,8.63
2017-10-05T02:50:13.874Z,5.80
2017-10-05T02:53:24.051Z,5.53
2017-10-05T02:56:34.593Z,6.62
2017-10-05T02:59:44.869Z,5.95
2017-10-05T03:02:55.058Z,6.45
2017-10-05T03:06:06.495Z,6.40
2017-10-05T03:09:17.280Z,5.65
2017-10-05T03:12:27.821Z,5.30
2017-10-05T03:15:38.390Z,6.57
2017-10-05T03:18:49.727Z,6.00
2017-10-05T03:22:00.004Z,6.05
2017-10-05T03:25:10.068Z,8.43
2017-10-05T03:28:20.817Z,6.72
2017-10-05T03:31:31.939Z,7.15
2017-10-05T03:34:41.825Z,7.25
2017-10-05T03:37:51.999Z,7.95
2017-10-05T03:41:01.932Z,7.40
2017-10-05T03:44:12.031Z,6.95
2017-10-05T03:47:22.754Z,6.72
2017-10-05T03:50:32.852Z,8.25
2017-10-05T03:53:42.782Z,7.28
2017-10-05T03:56:54.445Z,7.50
2017-10-05T04:00:05.470Z,7.85
2017-10-05T04:03:15.588Z,7.15
2017-10-05T04:06:26.052Z,8.60
2017-10-05T04:09:36.026Z,7.47
2017-10-05T04:12:45.838Z,8.48
2017-10-05T04:15:55.734Z,10.07
2017-10-05T04:19:06.090Z,7.32
2017-10-05T04:22:16.456Z,8.20
2017-10-05T04:25:26.848Z,8.48
2017-10-05T04:28:36.935Z,8.60
2017-10-05T04:31:47.150Z,7.57
2017-10-05T04:34:57.146Z,9.82
2017-10-05T04:38:07.490Z,7.60
2017-10-05T04:41:18.169Z,7.53
2017-10-05T04:44:28.334Z,9.07
2017-10-05T04:47:38.174Z,9.18
2017-10-05T04:50:48.151Z,8.68
2017-10-05T04:53:58.068Z,7.47
2017-10-05T04:57:08.743Z,7.47
2017-10-05T05:00:19.524Z,10.75
2017-10-05T05:03:30.448Z,9.02
2017-10-05T05:06:40.612Z,7.93
2017-10-05T05:09:50.970Z,9.68
2017-10-05T05:13:01.010Z,10.00
2017-10-05T05:16:11.435Z,9.18
2017-10-05T05:19:22.803Z,9.02
2017-10-05T05:22:33.282Z,8.25
2017-10-05T05:25:43.369Z,11.02
2017-10-05T05:28:53.337Z,7.80
2017-10-05T05:32:04.018Z,7.37
2017-10-05T05:35:14.161Z,8.10
2017-10-05T05:38:24.117Z,9.57
2017-10-05T05:41:34.253Z,9.20
2017-10-05T05:44:44.622Z,8.95
2017-10-05T05:47:54.715Z,8.40
2017-10-05T05:51:04.681Z,8.52
2017-10-05T05:54:14.907Z,10.85
2017-10-05T05:57:25.994Z,7.72
2017-10-05T06:00:36.432Z,9.60
2017-10-05T06:03:46.474Z,8.65
2017-10-05T06:06:56.384Z,8.25
2017-10-05T06:10:06.294Z,9.27
2017-10-05T06:13:16.359Z,9.32
2017-10-05T06:16:26.475Z,7.25
2017-10-05T06:19:36.484Z,9.40
2017-10-05T06:22:46.954Z,8.27
2017-10-05T06:25:56.854Z,7.95
2017-10-05T06:29:07.194Z,8.32
2017-10-05T06:32:18.206Z,6.65
2017-10-05T06:35:28.642Z,6.65
2017-10-05T06:38:39.619Z,7.37
2017-10-05T06:41:49.683Z,7.25
2017-10-05T06:44:59.850Z,9.73
2017-10-05T06:48:09.898Z,7.97
2017-10-05T06:51:19.894Z,7.93
2017-10-05T06:54:29.891Z,7.47
2017-10-05T06:57:39.968Z,11.23
2017-10-05T07:00:50.130Z,7.25
2017-10-05T07:04:00.291Z,9.20
2017-10-05T07:07:11.456Z,7.50
2017-10-05T07:10:21.170Z,7.93
2017-10-05T07:13:31.879Z,7.78
2017-10-05T07:16:41.772Z,7.80
2017-10-05T07:19:52.271Z,5.05
2017-10-05T07:23:02.405Z,8.35
2017-10-05T07:26:12.591Z,6.50
2017-10-05T07:29:22.762Z,8.07
2017-10-05T07:32:33.165Z,9.00
2017-10-05T07:35:44.337Z,7.95
2017-10-05T07:38:54.812Z,8.00
2017-10-05T07:42:05.470Z,9.82
2017-10-05T07:45:15.321Z,7.05
2017-10-05T07:48:25.583Z,6.53
2017-10-05T07:51:36.007Z,6.95
2017-10-05T07:54:45.888Z,6.55
2017-10-05T07:57:57.052Z,7.93
2017-10-05T08:01:07.270Z,6.70
2017-10-05T08:04:17.784Z,7.37
2017-10-05T08:07:28.020Z,9.38
2017-10-05T08:10:38.222Z,9.00
2017-10-05T08:13:48.787Z,7.12
2017-10-05T08:16:59.959Z,7.15
2017-10-05T08:20:10.284Z,6.75
2017-10-05T08:23:20.310Z,5.78
2017-10-05T08:26:30.388Z,6.78
2017-10-05T08:29:40.379Z,7.30
2017-10-05T08:32:51.542Z,4.75
2017-10-05T08:36:02.952Z,6.70
2017-10-05T08:39:12.861Z,7.00
2017-10-05T08:42:22.966Z,4.95
2017-10-05T08:45:33.256Z,5.60
2017-10-05T08:48:43.999Z,5.90
2017-10-05T08:51:53.934Z,5.93
2017-10-05T08:55:04.269Z,6.95
2017-10-05T08:58:14.388Z,6.45
2017-10-05T09:01:24.143Z,6.12
2017-10-05T09:04:34.473Z,6.53
2017-10-05T09:07:44.467Z,6.45
2017-10-05T09:10:54.320Z,7.57
2017-10-05T09:14:04.669Z,6.40
2017-10-05T09:17:15.473Z,6.20
2017-10-05T09:20:26.650Z,7.07
2017-10-05T09:23:37.861Z,5.90
2017-10-05T09:26:48.221Z,6.05
2017-10-05T09:29:58.071Z,6.50
2017-10-05T09:33:08.585Z,6.57
2017-10-05T09:36:19.096Z,6.22
2017-10-05T09:39:29.602Z,7.28
2017-10-05T09:42:40.423Z,7.12
2017-10-05T09:45:51.627Z,6.55
2017-10-05T09:49:02.059Z,5.82
2017-10-05T09:52:12.526Z,6.47
2017-10-05T09:55:22.744Z,5.60
2017-10-05T09:58:33.018Z,6.72
2017-10-05T10:01:43.844Z,4.95
2017-10-05T10:04:54.316Z,5.93
2017-10-05T10:08:04.498Z,6.07
2017-10-05T10:11:14.656Z,5.25
2017-10-05T10:14:24.972Z,5.65
2017-10-05T10:17:35.684Z,5.57
2017-10-05T10:20:47.247Z,6.80
2017-10-05T10:23:57.628Z,5.30
2017-10-05T10:27:07.398Z,6.37
2017-10-05T10:30:17.360Z,5.62
2017-10-05T10:33:27.931Z,5.40
2017-10-05T10:36:40.790Z,5.43
2017-10-05T10:39:51.554Z,6.45
2017-10-05T10:43:01.472Z,5.45
2017-10-05T10:46:11.710Z,6.30
2017-10-05T10:49:21.806Z,5.10
2017-10-05T10:52:32.537Z,6.20
2017-10-05T10:55:42.758Z,5.60
2017-10-05T10:58:53.621Z,6.87
2017-10-05T11:02:03.798Z,6.32
2017-10-05T11:05:13.982Z,6.60
2017-10-05T11:08:25.174Z,4.90
2017-10-05T11:11:35.543Z,4.75
2017-10-05T11:14:46.069Z,5.50
2017-10-05T11:17:56.581Z,4.35
2017-10-05T11:21:07.586Z,5.32
2017-10-05T11:24:17.972Z,4.95
2017-10-05T11:27:28.214Z,4.00
2017-10-05T11:30:38.694Z,6.30
2017-10-05T11:33:48.829Z,4.85
2017-10-05T11:36:58.774Z,4.80
2017-10-05T11:40:08.987Z,4.55
2017-10-05T11:43:19.960Z,5.70
2017-10-05T11:46:30.292Z,4.35
2017-10-05T11:49:40.488Z,5.87
2017-10-05T11:52:51.143Z,4.72
2017-10-05T11:56:01.859Z,4.82
2017-10-05T11:59:11.756Z,3.87
2017-10-05T12:02:22.836Z,4.10
2017-10-05T12:05:33.360Z,4.72
2017-10-05T12:08:43.411Z,3.53
2017-10-05T12:11:53.634Z,4.45
2017-10-05T12:15:03.921Z,3.80
2017-10-05T12:18:14.886Z,3.50
2017-10-05T12:21:25.694Z,4.07
2017-10-05T12:24:36.172Z,4.85
2017-10-05T12:27:46.652Z,4.32
2017-10-05T12:30:56.709Z,4.43
2017-10-05T12:34:07.019Z,4.53
2017-10-05T12:37:17.244Z,3.20
2017-10-05T12:40:28.553Z,4.87
2017-10-05T12:43:38.345Z,4.03
2017-10-05T12:46:48.498Z,3.87
2017-10-05T12:49:58.353Z,4.12
2017-10-05T12:53:08.607Z,3.30
2017-10-05T12:56:18.816Z,3.72
2017-10-05T12:59:29.811Z,3.67
2017-10-05T13:02:39.666Z,3.97
2017-10-05T13:05:50.277Z,4.50
2017-10-05T13:09:00.786Z,3.08
2017-10-05T13:12:11.128Z,4.15
2017-10-05T13:15:21.737Z,3.70
2017-10-05T13:18:32.171Z,4.53
2017-10-05T13:21:42.375Z,4.15
2017-10-05T13:24:52.372Z,3.75
2017-10-05T13:28:02.462Z,4.05
2017-10-05T13:31:12.796Z,3.67
2017-10-05T13:34:23.661Z,4.72
2017-10-05T13:37:33.959Z,4.62
2017-10-05T13:40:44.152Z,4.35
2017-10-05T13:43:55.190Z,3.62
2017-10-05T13:47:05.238Z,4.07
2017-10-05T13:50:15.290Z,4.68
2017-10-05T13:53:25.416Z,4.87
2017-10-05T13:56:35.902Z,3.70
2017-10-05T13:59:45.642Z,3.97
2017-10-05T14:02:56.840Z,4.50
2017-10-05T14:06:07.373Z,4.35
2017-10-05T14:09:17.787Z,5.12
2017-10-05T14:12:27.676Z,4.53
2017-10-05T14:15:38.941Z,4.10
2017-10-05T14:18:49.519Z,4.47
2017-10-05T14:22:01.343Z,4.53
2017-10-05T14:25:12.142Z,4.40
2017-10-05T14:28:22.369Z,4.30
2017-10-05T14:31:32.826Z,3.33
2017-10-05T14:34:43.845Z,4.10
2017-10-05T14:37:53.584Z,4.15
2017-10-05T14:41:03.427Z,3.53
2017-10-05T14:44:13.473Z,4.50
2017-10-05T14:47:25.098Z,3.72
2017-10-05T14:50:35.288Z,4.07
2017-10-05T14:53:45.375Z,5.05
2017-10-05T14:56:55.478Z,4.47
2017-10-05T15:00:05.457Z,3.62
2017-10-05T15:03:16.307Z,3.72
2017-10-05T15:06:27.134Z,5.10
2017-10-05T15:09:37.922Z,3.80
2017-10-05T15:12:48.021Z,4.82
2017-10-05T15:15:58.044Z,3.90
2017-10-05T15:19:09.395Z,4.25
2017-10-05T15:22:19.545Z,6.00
2017-10-05T15:25:29.635Z,4.30
2017-10-05T15:28:39.462Z,3.30
2017-10-05T15:31:50.389Z,4.20
2017-10-05T15:35:01.663Z,2.87
2017-10-05T15:38:11.624Z,3.47
2017-10-05T15:41:22.428Z,3.30
2017-10-05T15:44:32.788Z,3.35
2017-10-05T15:47:42.991Z,4.70
2017-10-05T15:50:53.729Z,5.85
2017-10-05T15:54:03.964Z,3.62
2017-10-05T15:57:13.959Z,4.18
2017-10-05T16:00:26.951Z,3.95
2017-10-05T16:03:37.671Z,3.42
2017-10-05T16:06:47.800Z,3.05
2017-10-05T16:09:58.355Z,3.53
2017-10-05T16:13:09.959Z,3.55
2017-10-05T16:16:20.111Z,3.25
2017-10-05T16:19:30.273Z,4.75
2017-10-05T16:22:41.149Z,3.15
2017-10-05T16:25:51.866Z,3.60
2017-10-05T16:29:02.096Z,3.53
2017-10-05T16:32:13.343Z,4.25
2017-10-05T16:35:23.292Z,3.30
2017-10-05T16:38:33.375Z,3.50
2017-10-05T16:41:43.662Z,3.87
2017-10-05T16:44:54.284Z,4.12
2017-10-05T16:48:04.333Z,3.70
2017-10-05T16:51:14.603Z,3.50
2017-10-05T16:54:24.654Z,3.37
2017-10-05T16:57:34.385Z,4.05
2017-10-05T17:00:44.656Z,3.55
2017-10-05T17:03:54.566Z,3.90
2017-10-05T17:07:05.131Z,3.87
2017-10-05T17:10:15.158Z,3.85
2017-10-05T17:13:25.240Z,3.12
2017-10-05T17:16:35.231Z,3.33
2017-10-05T17:19:45.165Z,3.60
2017-10-05T17:22:54.947Z,3.92
2017-10-05T17:26:06.106Z,3.33
2017-10-05T17:29:16.439Z,3.70
2017-10-05T17:32:29.686Z,3.50
2017-10-05T17:35:40.543Z,4.03
2017-10-05T17:38:52.450Z,3.50
2017-10-05T17:42:03.494Z,3.45
2017-10-05T17:45:13.633Z,3.70
2017-10-05T17:48:26.021Z,3.20
2017-10-05T17:51:37.181Z,3.40
2017-10-05T17:54:47.445Z,3.28
2017-10-05T17:57:57.849Z,4.18
2017-10-05T18:01:07.926Z,3.70
2017-10-05T18:04:18.283Z,3.60
2017-10-05T18:07:29.518Z,4.65
2017-10-05T18:10:41.138Z,8.15
2017-10-05T18:13:51.395Z,4.20
2017-10-05T18:17:01.996Z,4.00
2017-10-05T18:20:12.838Z,3.65
2017-10-05T18:23:24.399Z,3.45
2017-10-05T18:26:34.184Z,4.18
2017-10-05T18:29:44.488Z,3.15
2017-10-05T18:32:55.340Z,4.90
2017-10-05T18:36:06.295Z,3.70
2017-10-05T18:39:16.881Z,4.10
2017-10-05T18:42:26.796Z,4.45
2017-10-05T18:45:37.118Z,5.32
2017-10-05T18:48:47.816Z,4.07
2017-10-05T18:51:58.389Z,3.83
2017-10-05T18:55:10.842Z,3.40
2017-10-05T18:58:21.760Z,3.25
2017-10-05T19:01:31.746Z,4.60
2017-10-05T19:04:41.671Z,3.62
2017-10-05T19:07:51.481Z,5.62
2017-10-05T19:11:02.143Z,4.62
2017-10-05T19:14:12.164Z,5.40
2017-10-05T19:17:22.891Z,6.15
2017-10-05T19:20:33.717Z,3.70
2017-10-05T19:23:44.353Z,3.45
2017-10-05T19:26:54.418Z,3.83
2017-10-05T19:30:05.132Z,3.65
2017-10-05T19:33:14.911Z,3.80
2017-10-05T19:36:24.935Z,3.67
2017-10-05T19:39:35.567Z,3.60
2017-10-05T19:42:45.531Z,3.92
2017-10-05T19:45:56.322Z,3.97
2017-10-05T19:49:07.061Z,3.78
2017-10-05T19:52:18.206Z,3.10
2017-10-05T19:55:28.736Z,3.62
2017-10-05T19:58:38.914Z,3.83
2017-10-05T20:01:50.037Z,4.40
2017-10-05T20:04:59.830Z,4.28
2017-10-05T20:08:09.953Z,4.93
2017-10-05T20:11:20.491Z,4.45
2017-10-05T20:14:31.999Z,3.55
2017-10-05T20:17:43.888Z,3.50
2017-10-05T20:20:59.636Z,4.03
2017-10-05T20:27:54.326Z,3.35
2017-10-05T20:31:22.764Z,3.87
2017-10-05T20:34:33.076Z,3.67
2017-10-05T20:37:43.266Z,4.45
2017-10-05T20:40:56.363Z,4.35
2017-10-05T20:44:07.011Z,3.37
2017-10-05T20:47:18.452Z,3.58
2017-10-05T20:50:28.647Z,3.50
2017-10-05T20:53:39.630Z,4.00
2017-10-05T20:56:50.386Z,4.18
2017-10-05T21:00:01.477Z,4.28
2017-10-05T21:03:11.941Z,4.47
2017-10-05T21:06:22.743Z,3.67
2017-10-05T21:09:33.313Z,4.82
2017-10-05T21:12:44.177Z,5.65
2017-10-05T21:15:55.042Z,3.67
2017-10-05T21:19:06.499Z,3.70
2017-10-05T21:22:17.556Z,4.62
2017-10-05T21:25:27.639Z,3.90
2017-10-05T21:28:38.265Z,4.87
2017-10-05T21:31:48.326Z,4.12
2017-10-05T21:34:59.895Z,3.67
2017-10-05T21:38:10.007Z,4.70
2017-10-05T21:41:20.022Z,3.42
2017-10-05T21:44:30.729Z,4.40
2017-10-05T21:47:40.609Z,3.72
2017-10-05T21:50:51.214Z,4.50
2017-10-05T21:54:01.346Z,4.20
2017-10-05T21:57:12.910Z,3.92
2017-10-05T22:00:23.555Z,4.30
2017-10-05T22:03:33.618Z,3.75
2017-10-05T22:06:43.378Z,4.32
2017-10-05T22:09:54.684Z,3.78
2017-10-05T22:13:04.948Z,4.00
2017-10-05T22:16:15.523Z,3.60
2017-10-05T22:19:25.747Z,3.55
2017-10-05T22:22:37.222Z,3.95
2017-10-05T22:25:47.872Z,3.67
2017-10-05T22:28:58.462Z,3.67
2017-10-05T22:32:09.148Z,4.00
2017-10-05T22:35:18.974Z,5.15
2017-10-05T22:38:30.501Z,4.03
2017-10-05T22:41:41.542Z,3.65
2017-10-05T22:44:52.267Z,3.60
2017-10-05T22:48:02.409Z,4.12
2017-10-05T22:51:13.103Z,4.87
2017-10-05T22:54:23.931Z,4.28
2017-10-05T22:57:33.713Z,4.55
2017-10-05T23:00:43.680Z,3.50
2017-10-05T23:03:55.779Z,4.60
2017-10-05T23:07:06.985Z,3.87
2017-10-05T23:10:16.989Z,3.60
2017-10-05T23:13:27.866Z,3.72
2017-10-05T23:16:38.585Z,4.50
2017-10-05T23:19:49.327Z,4.32
2017-10-05T23:23:00.063Z,3.95
2017-10-05T23:26:10.587Z,4.65
2017-10-05T23:29:20.482Z,3.47
2017-10-05T23:32:30.276Z,4.70
2017-10-05T23:35:41.016Z,3.20
2017-10-05T23:38:50.873Z,4.12
2017-10-05T23:42:02.769Z,5.03
2017-10-05T23:45:13.528Z,4.10
2017-10-05T23:48:24.905Z,4.90
2017-10-05T23:51:34.929Z,5.95
2017-10-05T23:54:45.413Z,4.75
2017-10-05T23:57:55.694Z,4.68
